Página principal
METAR-TAF:

METAR-TAF

Aeroportos :

Porto Alegre, Rio Grande do Sul, Brasil

Aeroporto Internacional de Porto Alegre

latitude: 30-00S, longitude: 051-11W, altura: 3 m

Observação actual do tempo

O boletim foi feito há 46 minutos, às 16:00 UTC
Vento 18 kt de oeste
Temperatura 18°C
Humidade 42%
Pressão 1019 hPa
Visibilidade 10 km ou mais
Nuvens fragmentadasa uma altura de 4900 ft

METAR: SBPA 271600Z 28018KT 9999 BKN049 18/05 Q1019

Hora: 13:46 (16:46 UTC)

Previsão

O boletim foi feito há 7 horas e 46 minutos, às 09:00 UTC
Previsão válida de 27 às 12 UTC a 28 às 12 UTC
Vento 8 kt de oes-noroeste
Visibilidade 10 km ou mais
sem nuvens abaixo de 1500 metros e sem cumulonimbus
Temporariamente
de 27 às 14 UTC a 27 às 18 UTC
Vento 15 kt de oeste com rajadas de 25 kt

TAF: SBPA 270900Z 2712/2812 30008KT CAVOK TX18/2718Z TN07/2809Z TEMPO 2714/2718 28015G25KT RMK PDJ

Observações e previsões do tempo de mais de 4000 aeroportos (mensagens METAR e TAF).

As estações disponíveis são os pontos amarelos e vermelhos sobre o mapa.

Mova o rato sobre o mapa para ver o nome da estação.

Depois clique no ponto para visualizar as observações e previsões meteorológicas.

Para alterar o mapa : clique nos botões verdes com uma cruz preta para aumentar o zoom; no botão verde com uma pitada de zoom; ou nas setas verdes para mapas adjacentes.


METAR-TAF: